Fairfax, Virginia
Current Conditions -  °F | °C
As of 5:52 PM on Wednesday 22 Oct 2014 (Local Time) from KIAD Reporting Station
Overcast Overcast  
Wind Chill: 54°   Ceiling: 3500
Heat Index: 54°   Visibility: 10mi
Dew Point: 47°   Wind: 12mph
Humidity: 77%   Direction: 320°NW
Pressure: 29.95"   Gusts: NA
Location:  38.84°N, 77.31°W
Report Text: KIAD 222152Z 32010KT 10SM BKN035 OVC060 12/08 A2995 RMK AO2 SLP143 T01220083
Loading
Personal Weather Stations






























Interactive Weather Map
Tropical Storm Tracking
New forecast layout! Learn more

10-Day Weather Forecast

Advertisements
Track Severe Weather on mobile